createdAt,value
2023-03-26T00:02:47.189Z,6.26
2023-03-26T00:07:49.005Z,5.86
2023-03-26T00:12:51.611Z,7.50
2023-03-26T00:17:54.318Z,7.99
2023-03-26T00:22:56.537Z,8.29
2023-03-26T00:27:58.463Z,6.18
2023-03-26T00:33:00.374Z,8.41
2023-03-26T00:38:02.649Z,9.07
2023-03-26T00:43:19.164Z,7.96
2023-03-26T00:48:28.951Z,7.61
2023-03-26T00:53:38.817Z,5.15
2023-03-26T00:58:41.403Z,3.64
2023-03-26T01:04:00.730Z,1.99
2023-03-26T01:09:19.696Z,3.63
2023-03-26T01:14:25.079Z,1.91
2023-03-26T01:19:45.491Z,2.50
2023-03-26T01:24:53.476Z,3.15
2023-03-26T01:30:05.074Z,2.54
2023-03-26T01:35:34.894Z,2.15
2023-03-26T01:40:46.880Z,2.05
2023-03-26T01:45:51.198Z,2.44
2023-03-26T01:50:56.301Z,1.98
2023-03-26T01:56:18.414Z,2.37
2023-03-26T02:01:30.266Z,1.91
2023-03-26T02:06:46.135Z,2.39
2023-03-26T02:11:49.953Z,2.08
2023-03-26T02:16:51.669Z,2.71
2023-03-26T02:21:59.626Z,3.49
2023-03-26T02:27:02.583Z,2.57
2023-03-26T02:32:08.408Z,3.20
2023-03-26T02:37:10.382Z,2.67
2023-03-26T02:42:16.176Z,2.36
2023-03-26T02:47:22.789Z,2.89
2023-03-26T02:52:27.754Z,2.93
2023-03-26T02:57:32.260Z,4.59
2023-03-26T03:02:40.351Z,4.66
2023-03-26T03:08:03.436Z,3.50
2023-03-26T03:13:08.343Z,2.67
2023-03-26T03:18:10.251Z,1.47
2023-03-26T03:23:12.191Z,2.48
2023-03-26T03:28:15.251Z,2.24
2023-03-26T03:33:19.239Z,1.49
2023-03-26T03:38:21.285Z,1.50
2023-03-26T03:43:27.536Z,2.16
2023-03-26T03:48:49.677Z,1.63
2023-03-26T03:53:59.392Z,2.37
2023-03-26T03:59:21.451Z,2.12
2023-03-26T04:04:24.765Z,1.99
2023-03-26T04:09:32.748Z,1.56
2023-03-26T04:14:39.377Z,2.57
2023-03-26T04:19:50.273Z,1.92
2023-03-26T04:24:54.508Z,1.83
2023-03-26T04:30:03.876Z,1.89
2023-03-26T04:35:06.771Z,1.40
2023-03-26T04:40:14.506Z,0.55
2023-03-26T04:45:34.735Z,0.53
2023-03-26T04:50:36.584Z,1.48
2023-03-26T04:55:59.757Z,1.57
2023-03-26T05:01:24.258Z,0.99
2023-03-26T05:06:34.247Z,0.84
2023-03-26T05:11:41.381Z,0.73
2023-03-26T05:16:44.963Z,0.71
2023-03-26T05:21:46.920Z,1.15
2023-03-26T05:26:48.794Z,1.02
2023-03-26T05:31:57.060Z,1.70
2023-03-26T05:36:59.006Z,0.87
2023-03-26T05:42:24.150Z,1.19
2023-03-26T05:47:37.997Z,2.30
2023-03-26T05:52:40.397Z,1.64
2023-03-26T05:58:02.765Z,1.83
2023-03-26T06:03:23.952Z,3.62
2023-03-26T06:09:02.195Z,4.26
2023-03-26T06:14:06.577Z,4.42
2023-03-26T06:19:10.050Z,6.31
2023-03-26T06:24:32.804Z,6.61
2023-03-26T06:30:00.462Z,5.12
2023-03-26T06:35:21.868Z,7.51
2023-03-26T06:40:23.967Z,5.36
2023-03-26T06:45:57.624Z,5.19
2023-03-26T06:51:11.569Z,4.43
2023-03-26T06:56:48.675Z,5.12
2023-03-26T07:02:13.327Z,2.47
2023-03-26T07:07:34.411Z,5.18
2023-03-26T07:13:11.679Z,6.61
2023-03-26T07:18:32.074Z,5.29
2023-03-26T07:23:35.438Z,5.72
2023-03-26T07:29:11.418Z,6.17
2023-03-26T07:34:31.502Z,4.77
2023-03-26T07:40:00.835Z,4.72
2023-03-26T07:45:44.213Z,2.74
2023-03-26T07:51:00.511Z,1.89
2023-03-26T07:56:40.685Z,2.05
2023-03-26T08:02:36.934Z,1.43
2023-03-26T08:08:13.700Z,1.53
2023-03-26T08:13:35.422Z,2.79
2023-03-26T08:18:41.288Z,0.36
2023-03-26T08:23:55.086Z,3.54
2023-03-26T08:29:07.624Z,5.26
2023-03-26T08:34:12.491Z,6.70
2023-03-26T08:39:14.349Z,1.36
2023-03-26T08:44:25.831Z,2.57
2023-03-26T08:49:46.025Z,2.46
2023-03-26T08:55:25.866Z,3.27
2023-03-26T09:01:08.470Z,3.25
2023-03-26T09:06:28.729Z,3.24
2023-03-26T09:12:08.151Z,4.40
2023-03-26T09:17:35.455Z,3.70
2023-03-26T09:23:05.648Z,1.62
2023-03-26T09:28:28.989Z,2.03
2023-03-26T09:33:59.990Z,2.42
2023-03-26T09:39:08.625Z,3.89
2023-03-26T09:44:40.600Z,4.51
2023-03-26T09:49:50.687Z,5.79
2023-03-26T09:55:20.236Z,5.78
2023-03-26T10:00:52.468Z,4.07
2023-03-26T10:06:30.356Z,2.82
2023-03-26T10:11:41.670Z,1.44
2023-03-26T10:16:58.690Z,1.72
2023-03-26T10:22:15.754Z,0.65
2023-03-26T10:27:46.878Z,0.66
2023-03-26T10:33:24.588Z,0.73
2023-03-26T10:38:52.396Z,1.28
2023-03-26T10:44:21.904Z,2.76
2023-03-26T10:49:37.778Z,1.79
2023-03-26T10:54:39.475Z,1.78
2023-03-26T10:59:41.460Z,1.87
2023-03-26T11:05:09.666Z,2.24
2023-03-26T11:10:14.228Z,1.76
2023-03-26T11:15:37.913Z,2.15
2023-03-26T11:20:41.649Z,1.99
2023-03-26T11:26:09.558Z,2.07
2023-03-26T11:31:28.616Z,2.00
2023-03-26T11:36:35.797Z,1.77
2023-03-26T11:41:37.571Z,2.21
2023-03-26T11:46:48.577Z,2.76
2023-03-26T11:51:50.766Z,2.64
2023-03-26T11:57:04.793Z,3.21
2023-03-26T12:02:14.457Z,4.23
2023-03-26T12:07:17.540Z,4.01
2023-03-26T12:12:20.394Z,3.58
2023-03-26T12:17:31.125Z,2.76
2023-03-26T12:22:39.934Z,3.16
2023-03-26T12:28:08.751Z,4.55
2023-03-26T12:33:19.604Z,4.46
2023-03-26T12:38:21.849Z,3.95
2023-03-26T12:44:49.992Z,3.03
2023-03-26T12:49:00.269Z,2.44
2023-03-26T12:54:29.400Z,3.20
2023-03-26T12:59:46.724Z,2.25
2023-03-26T13:05:04.301Z,2.67
2023-03-26T13:10:25.423Z,2.01
2023-03-26T13:15:38.526Z,4.30
2023-03-26T13:20:49.486Z,5.09
2023-03-26T13:26:10.641Z,1.45
2023-03-26T13:31:26.384Z,2.25
2023-03-26T13:36:39.129Z,-1.28
2023-03-26T13:41:47.218Z,-2.10
2023-03-26T13:46:51.801Z,0.41
2023-03-26T13:51:58.887Z,1.37
2023-03-26T13:57:31.893Z,2.33
2023-03-26T14:02:42.614Z,2.53
2023-03-26T14:08:01.478Z,3.27
2023-03-26T14:13:29.410Z,5.59
2023-03-26T14:18:46.060Z,6.39
2023-03-26T14:24:25.435Z,4.26
2023-03-26T14:29:56.856Z,5.17
2023-03-26T14:35:24.399Z,6.11
2023-03-26T14:41:03.466Z,4.71
2023-03-26T14:46:26.627Z,6.76
2023-03-26T14:51:59.616Z,8.38
2023-03-26T14:57:22.875Z,9.08
2023-03-26T15:02:39.658Z,6.63
2023-03-26T15:08:33.889Z,8.46
2023-03-26T15:14:13.793Z,6.53
2023-03-26T15:19:17.684Z,3.38
2023-03-26T15:24:37.965Z,6.18
2023-03-26T15:29:45.957Z,5.78
2023-03-26T15:35:04.053Z,6.16
2023-03-26T15:40:27.657Z,6.70
2023-03-26T15:45:38.685Z,5.50
2023-03-26T15:50:54.051Z,7.57
2023-03-26T15:56:20.904Z,8.67
2023-03-26T16:01:37.477Z,8.14
2023-03-26T16:07:03.685Z,6.54
2023-03-26T16:12:17.479Z,7.68
2023-03-26T16:17:26.133Z,8.21
2023-03-26T16:22:42.826Z,9.17
2023-03-26T16:27:45.756Z,9.54
2023-03-26T16:32:56.208Z,8.94
2023-03-26T16:38:24.969Z,3.53
2023-03-26T16:43:46.727Z,3.96
2023-03-26T16:49:27.698Z,4.88
2023-03-26T16:54:36.079Z,5.17
2023-03-26T17:00:16.603Z,7.06
2023-03-26T17:05:34.287Z,7.23
2023-03-26T17:10:46.426Z,7.41
2023-03-26T17:16:21.332Z,6.82
2023-03-26T17:21:46.477Z,7.77
2023-03-26T17:26:52.172Z,8.04
2023-03-26T17:32:09.063Z,7.83
2023-03-26T17:37:17.046Z,7.46
2023-03-26T17:42:26.740Z,6.61
2023-03-26T17:47:35.956Z,7.90
2023-03-26T17:52:59.384Z,7.21
2023-03-26T17:58:05.177Z,7.14
2023-03-26T18:03:31.105Z,7.20
2023-03-26T18:09:23.964Z,7.04
2023-03-26T18:14:38.447Z,7.32
2023-03-26T18:20:06.595Z,6.52
2023-03-26T18:25:23.852Z,6.99
2023-03-26T18:30:26.268Z,7.05
2023-03-26T18:35:40.696Z,6.82
2023-03-26T18:40:45.202Z,7.37
2023-03-26T18:45:51.488Z,7.96
2023-03-26T18:50:57.051Z,7.75
2023-03-26T18:55:59.029Z,7.54
2023-03-26T19:01:04.059Z,7.65
2023-03-26T19:06:12.515Z,7.54
2023-03-26T19:11:17.293Z,6.42
2023-03-26T19:16:33.407Z,7.12
2023-03-26T19:21:36.475Z,6.49
2023-03-26T19:26:38.292Z,6.98
2023-03-26T19:31:40.608Z,6.97
2023-03-26T19:37:04.266Z,6.38
2023-03-26T19:42:07.585Z,5.99
2023-03-26T19:47:29.074Z,6.13
2023-03-26T19:52:38.463Z,6.44
2023-03-26T19:57:40.216Z,5.93
2023-03-26T20:02:43.401Z,6.39
2023-03-26T20:07:45.267Z,6.23
2023-03-26T20:12:47.019Z,7.18
2023-03-26T20:17:55.234Z,7.17
2023-03-26T20:22:57.070Z,7.36
2023-03-26T20:27:59.263Z,7.51
2023-03-26T20:33:11.793Z,7.00
2023-03-26T20:38:16.075Z,6.92
2023-03-26T20:43:19.468Z,7.10
2023-03-26T20:48:21.587Z,7.32
2023-03-26T20:53:24.349Z,7.13
2023-03-26T20:58:32.018Z,6.81
2023-03-26T21:03:34.179Z,7.02
2023-03-26T21:08:37.169Z,7.49
2023-03-26T21:13:41.747Z,5.96
2023-03-26T21:18:43.942Z,6.47
2023-03-26T21:23:59.314Z,7.24
2023-03-26T21:29:02.290Z,5.92
2023-03-26T21:34:05.437Z,6.23
2023-03-26T21:39:07.819Z,6.31
2023-03-26T21:44:09.860Z,5.77
2023-03-26T21:49:13.194Z,7.10
2023-03-26T21:54:29.464Z,7.54
2023-03-26T21:59:51.377Z,7.76
2023-03-26T22:05:45.158Z,6.52
2023-03-26T22:10:47.587Z,6.02
2023-03-26T22:15:49.405Z,6.32
2023-03-26T22:20:52.764Z,6.44
2023-03-26T22:25:54.635Z,5.91
2023-03-26T22:30:57.101Z,4.52
2023-03-26T22:35:59.365Z,4.37
2023-03-26T22:41:01.668Z,5.24
2023-03-26T22:46:05.224Z,5.99
2023-03-26T22:51:09.083Z,4.08
2023-03-26T22:56:13.501Z,0.44
2023-03-26T23:01:21.600Z,1.62
2023-03-26T23:06:23.405Z,2.92
2023-03-26T23:11:25.171Z,3.39
2023-03-26T23:16:27.280Z,3.48
2023-03-26T23:21:29.059Z,2.33
2023-03-26T23:26:43.921Z,4.09
2023-03-26T23:31:52.919Z,3.14
2023-03-26T23:36:54.818Z,4.55
2023-03-26T23:41:56.682Z,3.28
2023-03-26T23:47:00.451Z,3.64
2023-03-26T23:52:02.148Z,4.49
2023-03-26T23:57:04.335Z,4.86
